Airport View

Enter AWOS ICAO identifier for current METAR.

ex. KFNL

KAIK 030005Z AUTO 20005KT 10SM CLR 26/16 A3011 RMK AO2 T02550165

3 Jun 2020 00:07

Frequency: 118.025

Phone: 803-643-8664

Other Area AWOS: KDNL - KAGS - KBNL - KCAE

TAF KDNL 022327Z 0300/0324 22008KT P6SM SCT060 SCT250 FM030200 18004KT P6SM SCT250 FM031400 23008KT P6SM SCT050